GW0603 Weather Reports


Display with metric or nautical units.
time (UTC)temp
F
wind
direction
speed
MPH
gust
MPH
rain 1hr
in
rain 24hr
in
rain mn
in
humidity
%
barometer
mb
20260508174603 65 229 4.0 9.0 0.00 0.00 0.00 44 1015.7
20260508173100 67 93 3.0 11.0 0.00 0.00 0.00 41 1015.8
20260508171557 66 255 2.0 7.0 0.00 0.00 0.00 40 1016.0
20260508170056 65 203 3.0 9.0 0.00 0.00 0.00 40 1016.5
20260508164559 66 295 1.0 8.0 0.00 0.00 0.00 38 1016.6
20260508163106 65 327 2.0 8.0 0.00 0.00 0.00 39 1016.8
20260508161605 62 202 3.0 9.0 0.00 0.00 0.00 41 1017.1
20260508160058 62 227 2.0 8.0 0.00 0.00 0.00 43 1017.4
20260508154603 63 142 2.0 9.0 0.00 0.00 0.00 44 1017.6
20260508153058 62 196 2.0 5.0 0.00 0.00 0.00 47 1017.7
20260508151607 61 232 3.0 8.0 0.00 0.00 0.00 49 1017.7
20260508150057 60 325 2.0 8.0 0.00 0.00 0.00 51 1017.9
20260508144554 60 0 3.0 7.0 0.00 0.00 0.00 47 1017.9
20260508143104 59 238 2.0 5.0 0.00 0.00 0.00 47 1018.0
20260508141557 57 0 1.0 4.0 0.00 0.00 0.00 49 1018.0
20260508140059 57 194 1.0 6.0 0.00 0.00 0.00 50 1018.0
20260508134602 56 0 0.0 3.0 0.00 0.00 0.00 57 1018.0
20260508133104 57 175 1.0 3.0 0.00 0.00 0.00 58 1018.0
20260508131556 53 182 0.0 4.0 0.00 0.00 0.00 69 1018.0
20260508130059 52 211 1.0 4.0 0.00 0.00 0.00 75 1017.8
20260508124559 51 0 1.0 4.0 0.00 0.00 0.00 79 1017.8
20260508123108 49 79 0.0 2.0 0.00 0.00 0.00 81 1017.7
20260508121602 48 0 0.0 0.0 0.00 0.00 0.00 79 1017.7
20260508120107 46 0 0.0 0.0 0.00 0.00 0.00 87 1017.3
20260508114603 43 0 0.0 3.0 0.00 0.00 0.00 92 1017.2
20260508113059 41 0 0.0 2.0 0.00 0.00 0.00 93 1017.0
20260508111603 40 0 0.0 0.0 0.00 0.00 0.00 94 1016.9
20260508104556 39 0 0.0 0.0 0.00 0.00 0.00 94 1016.3
20260508103057 40 0 0.0 0.0 0.00 0.00 0.00 94 1015.9
20260508101557 40 0 0.0 0.0 0.00 0.00 0.00 94 1015.6
20260508100055 40 0 0.0 0.0 0.00 0.00 0.00 92 1015.4
20260508094606 42 0 0.0 0.0 0.00 0.00 0.00 92 1015.5
20260508093055 42 0 0.0 0.0 0.00 0.00 0.00 92 1015.3
20260508091559 42 0 0.0 0.0 0.00 0.00 0.00 92 1015.2
20260508084557 41 0 0.0 0.0 0.00 0.00 0.00 92 1014.9
20260508083100 42 0 0.0 4.0 0.00 0.00 0.00 92 1015.0
20260508081617 43 0 0.0 0.0 0.00 0.00 0.00 91 1014.8
20260508080054 43 0 0.0 1.0 0.00 0.00 0.00 90 1014.8
20260508074557 44 0 0.0 1.0 0.00 0.00 0.00 89 1014.6
20260508073055 44 360 1.0 3.0 0.00 0.00 0.00 90 1014.5
20260508071557 44 0 0.0 2.0 0.00 0.00 0.00 88 1014.4
20260508070106 44 0 1.0 4.0 0.00 0.00 0.00 86 1014.4
20260508064556 45 0 0.0 1.0 0.00 0.00 0.00 86 1014.2
20260508063056 44 0 0.0 1.0 0.00 0.00 0.00 89 1014.2
20260508061557 44 0 0.0 2.0 0.00 0.00 0.00 89 1014.1
20260508060106 45 360 0.0 2.0 0.00 0.00 0.00 88 1014.0
20260508054559 45 0 0.0 2.0 0.00 0.00 0.00 87 1014.0
20260508053059 45 360 1.0 3.0 0.00 0.00 0.00 87 1014.1
20260508051600 46 360 0.0 1.0 0.00 0.00 0.00 86 1014.0
20260508050058 46 0 0.0 3.0 0.00 0.00 0.00 84 1013.9
20260508044606 47 0 0.0 0.0 0.00 0.00 0.00 82 1013.7
20260508043107 47 0 0.0 1.0 0.00 0.00 0.00 83 1013.7
20260508041556 47 360 0.0 3.0 0.00 0.00 0.00 81 1013.6
20260508034558 48 0 1.0 3.0 0.00 0.00 0.00 80 1013.7
20260508033058 48 0 0.0 1.0 0.00 0.00 0.00 79 1013.6
20260508031556 49 0 0.0 0.0 0.00 0.00 0.00 77 1013.6
20260508030103 50 0 0.0 2.0 0.00 0.00 0.00 74 1013.4
20260508024601 50 0 0.0 1.0 0.00 0.00 0.00 73 1013.3
20260508023056 51 0 0.0 1.0 0.00 0.00 0.00 71 1013.1
20260508021601 52 0 0.0 2.0 0.00 0.00 0.00 68 1013.0
20260508014600 53 360 1.0 7.0 0.00 0.00 0.00 64 1012.7
20260508013102 54 0 2.0 5.0 0.00 0.00 0.00 62 1012.4
20260508011606 54 48 2.0 5.0 0.00 0.00 0.00 61 1012.1
20260508010056 55 352 2.0 8.0 0.00 0.00 0.00 60 1011.8
20260508004557 55 314 4.0 12.0 0.00 0.00 0.00 60 1011.6
20260508003059 55 20 3.0 6.0 0.00 0.00 0.00 61 1011.3
20260508001555 57 0 2.0 8.0 0.00 0.00 0.00 61 1011.2
20260508000057 58 313 0.0 5.0 0.00 0.00 0.00 62 1010.9
20260507234604 60 21 3.0 9.0 0.00 0.00 0.00 59 1011.0
20260507233058 62 355 6.0 15.0 0.00 0.00 0.00 56 1010.8
20260507231603 64 329 5.0 10.0 0.00 0.00 0.00 55 1010.6
20260507230100 63 310 3.0 13.0 0.00 0.00 0.00 56 1010.3
20260507224601 65 284 5.0 17.0 0.00 0.00 0.00 55 1010.1
20260507223100 65 290 9.0 15.0 0.00 0.00 0.00 56 1009.8
20260507221557 67 307 6.0 13.0 0.00 0.00 0.00 53 1009.4
20260507220055 69 340 6.0 15.0 0.00 0.00 0.00 51 1009.0
20260507214559 71 339 5.0 15.0 0.00 0.00 0.00 50 1008.6
20260507213056 70 309 7.0 18.0 0.00 0.00 0.00 50 1008.7
20260507211558 71 11 5.0 14.0 0.00 0.00 0.00 50 1008.3
20260507210057 73 321 5.0 14.0 0.00 0.00 0.00 47 1008.2
20260507204602 74 351 5.0 15.0 0.00 0.00 0.00 50 1008.0
20260507203107 74 313 7.0 17.0 0.00 0.00 0.00 49 1007.8
20260507201604 75 230 5.0 15.0 0.00 0.00 0.00 49 1007.6
20260507200058 75 275 8.0 17.0 0.00 0.00 0.00 49 1007.6
20260507194554 76 231 3.0 13.0 0.00 0.00 0.00 49 1007.4
20260507193059 76 229 5.0 13.0 0.00 0.00 0.00 50 1007.4
20260507191555 77 319 2.0 12.0 0.00 0.00 0.00 48 1007.6
20260507190055 77 246 7.0 13.0 0.00 0.00 0.00 49 1007.6
20260507184557 76 242 3.0 14.0 0.00 0.00 0.00 53 1007.6
20260507183058 75 188 6.0 20.0 0.00 0.00 0.00 57 1007.9
20260507181556 75 191 4.0 11.0 0.00 0.00 0.00 57 1007.8
20260507180057 70 232 2.0 7.0 0.00 0.00 0.00 69 1007.9